sensor_id;sensor_type;location;lat;lon;timestamp;P1;durP1;ratioP1;P2;durP2;ratioP2
73642;SDS011;61938;48.652;9.292;2023-02-15T00:01:54;52.60;;;19.77;;
73642;SDS011;61938;48.652;9.292;2023-02-15T00:04:21;49.22;;;20.23;;
73642;SDS011;61938;48.652;9.292;2023-02-15T00:06:47;44.80;;;20.33;;
73642;SDS011;61938;48.652;9.292;2023-02-15T00:09:13;49.80;;;20.67;;
73642;SDS011;61938;48.652;9.292;2023-02-15T00:11:39;48.97;;;20.23;;
73642;SDS011;61938;48.652;9.292;2023-02-15T00:14:23;48.47;;;21.58;;
73642;SDS011;61938;48.652;9.292;2023-02-15T00:16:49;49.97;;;19.95;;
73642;SDS011;61938;48.652;9.292;2023-02-15T00:19:17;43.30;;;18.58;;
73642;SDS011;61938;48.652;9.292;2023-02-15T00:21:44;45.28;;;19.13;;
73642;SDS011;61938;48.652;9.292;2023-02-15T00:24:11;47.47;;;18.92;;
73642;SDS011;61938;48.652;9.292;2023-02-15T00:26:38;42.40;;;18.48;;
73642;SDS011;61938;48.652;9.292;2023-02-15T00:29:04;46.58;;;19.80;;
73642;SDS011;61938;48.652;9.292;2023-02-15T00:31:31;42.47;;;18.38;;
73642;SDS011;61938;48.652;9.292;2023-02-15T00:34:02;53.40;;;20.80;;
73642;SDS011;61938;48.652;9.292;2023-02-15T00:36:28;47.33;;;20.77;;
73642;SDS011;61938;48.652;9.292;2023-02-15T00:38:53;46.85;;;20.73;;
73642;SDS011;61938;48.652;9.292;2023-02-15T00:41:19;47.22;;;18.38;;
73642;SDS011;61938;48.652;9.292;2023-02-15T00:43:44;44.10;;;18.98;;
73642;SDS011;61938;48.652;9.292;2023-02-15T00:46:09;44.03;;;18.10;;
73642;SDS011;61938;48.652;9.292;2023-02-15T00:48:35;40.10;;;18.75;;
73642;SDS011;61938;48.652;9.292;2023-02-15T00:51:01;46.38;;;20.05;;
73642;SDS011;61938;48.652;9.292;2023-02-15T00:53:26;47.67;;;19.65;;
73642;SDS011;61938;48.652;9.292;2023-02-15T00:55:53;50.08;;;21.33;;
73642;SDS011;61938;48.652;9.292;2023-02-15T00:58:18;48.45;;;19.65;;
73642;SDS011;61938;48.652;9.292;2023-02-15T01:00:44;50.17;;;21.30;;
73642;SDS011;61938;48.652;9.292;2023-02-15T01:03:11;49.00;;;21.75;;
73642;SDS011;61938;48.652;9.292;2023-02-15T01:05:38;52.47;;;20.60;;
73642;SDS011;61938;48.652;9.292;2023-02-15T01:08:04;51.45;;;20.95;;
73642;SDS011;61938;48.652;9.292;2023-02-15T01:10:30;49.50;;;21.98;;
73642;SDS011;61938;48.652;9.292;2023-02-15T01:12:55;46.53;;;21.67;;
73642;SDS011;61938;48.652;9.292;2023-02-15T01:15:21;51.20;;;19.52;;
73642;SDS011;61938;48.652;9.292;2023-02-15T01:17:47;50.22;;;21.17;;
73642;SDS011;61938;48.652;9.292;2023-02-15T01:20:20;46.63;;;20.45;;
73642;SDS011;61938;48.652;9.292;2023-02-15T01:22:48;52.47;;;22.45;;
73642;SDS011;61938;48.652;9.292;2023-02-15T01:25:15;47.45;;;21.02;;
73642;SDS011;61938;48.652;9.292;2023-02-15T01:27:41;58.42;;;23.20;;
73642;SDS011;61938;48.652;9.292;2023-02-15T01:30:07;48.17;;;21.23;;
73642;SDS011;61938;48.652;9.292;2023-02-15T01:32:33;53.47;;;22.10;;
73642;SDS011;61938;48.652;9.292;2023-02-15T01:34:59;47.03;;;20.88;;
73642;SDS011;61938;48.652;9.292;2023-02-15T01:37:25;45.72;;;21.02;;
73642;SDS011;61938;48.652;9.292;2023-02-15T01:39:50;48.63;;;20.70;;
73642;SDS011;61938;48.652;9.292;2023-02-15T01:42:20;51.63;;;21.60;;
73642;SDS011;61938;48.652;9.292;2023-02-15T01:44:58;52.05;;;21.00;;
73642;SDS011;61938;48.652;9.292;2023-02-15T01:47:42;53.80;;;23.60;;
73642;SDS011;61938;48.652;9.292;2023-02-15T01:50:28;49.42;;;22.75;;
73642;SDS011;61938;48.652;9.292;2023-02-15T01:53:03;46.17;;;21.23;;
73642;SDS011;61938;48.652;9.292;2023-02-15T01:56:00;47.45;;;21.38;;
73642;SDS011;61938;48.652;9.292;2023-02-15T01:58:27;51.42;;;21.15;;
73642;SDS011;61938;48.652;9.292;2023-02-15T02:00:54;50.90;;;20.77;;
73642;SDS011;61938;48.652;9.292;2023-02-15T02:03:24;44.92;;;20.55;;
73642;SDS011;61938;48.652;9.292;2023-02-15T02:06:01;50.45;;;20.65;;
73642;SDS011;61938;48.652;9.292;2023-02-15T02:08:27;49.55;;;21.30;;
73642;SDS011;61938;48.652;9.292;2023-02-15T02:10:53;52.70;;;21.63;;
73642;SDS011;61938;48.652;9.292;2023-02-15T02:13:18;56.58;;;22.00;;
73642;SDS011;61938;48.652;9.292;2023-02-15T02:18:38;50.28;;;21.63;;
73642;SDS011;61938;48.652;9.292;2023-02-15T02:21:18;50.03;;;22.42;;
73642;SDS011;61938;48.652;9.292;2023-02-15T02:24:29;49.15;;;22.00;;
73642;SDS011;61938;48.652;9.292;2023-02-15T02:34:00;56.72;;;22.42;;
73642;SDS011;61938;48.652;9.292;2023-02-15T02:36:01;61.13;;;24.48;;
73642;SDS011;61938;48.652;9.292;2023-02-15T02:41:40;49.72;;;22.70;;
73642;SDS011;61938;48.652;9.292;2023-02-15T02:44:28;49.05;;;23.00;;
73642;SDS011;61938;48.652;9.292;2023-02-15T02:46:58;55.53;;;23.20;;
73642;SDS011;61938;48.652;9.292;2023-02-15T02:49:30;53.90;;;23.85;;
73642;SDS011;61938;48.652;9.292;2023-02-15T02:52:03;53.90;;;22.73;;
73642;SDS011;61938;48.652;9.292;2023-02-15T02:54:47;53.65;;;23.50;;
73642;SDS011;61938;48.652;9.292;2023-02-15T02:57:13;56.95;;;23.38;;
73642;SDS011;61938;48.652;9.292;2023-02-15T02:59:39;52.70;;;22.55;;
73642;SDS011;61938;48.652;9.292;2023-02-15T03:02:10;51.35;;;22.30;;
73642;SDS011;61938;48.652;9.292;2023-02-15T03:04:42;53.88;;;23.45;;
73642;SDS011;61938;48.652;9.292;2023-02-15T03:07:12;52.70;;;24.15;;
73642;SDS011;61938;48.652;9.292;2023-02-15T03:09:47;54.28;;;23.25;;
73642;SDS011;61938;48.652;9.292;2023-02-15T03:12:17;56.13;;;23.25;;
73642;SDS011;61938;48.652;9.292;2023-02-15T03:14:52;58.88;;;24.58;;
73642;SDS011;61938;48.652;9.292;2023-02-15T03:17:23;57.13;;;24.60;;
73642;SDS011;61938;48.652;9.292;2023-02-15T03:19:52;61.33;;;24.25;;
73642;SDS011;61938;48.652;9.292;2023-02-15T03:22:21;53.88;;;23.92;;
73642;SDS011;61938;48.652;9.292;2023-02-15T03:24:59;59.97;;;25.48;;
73642;SDS011;61938;48.652;9.292;2023-02-15T03:27:39;60.45;;;24.90;;
73642;SDS011;61938;48.652;9.292;2023-02-15T03:30:08;55.08;;;22.17;;
73642;SDS011;61938;48.652;9.292;2023-02-15T03:32:36;58.67;;;25.25;;
73642;SDS011;61938;48.652;9.292;2023-02-15T03:35:03;54.83;;;23.55;;
73642;SDS011;61938;48.652;9.292;2023-02-15T03:40:18;49.60;;;22.23;;
73642;SDS011;61938;48.652;9.292;2023-02-15T03:46:05;53.17;;;23.40;;
73642;SDS011;61938;48.652;9.292;2023-02-15T03:48:37;55.15;;;23.75;;
73642;SDS011;61938;48.652;9.292;2023-02-15T03:51:12;58.08;;;24.80;;
73642;SDS011;61938;48.652;9.292;2023-02-15T03:54:00;53.78;;;22.35;;
73642;SDS011;61938;48.652;9.292;2023-02-15T03:56:33;56.70;;;22.73;;
73642;SDS011;61938;48.652;9.292;2023-02-15T03:59:00;56.53;;;23.13;;
73642;SDS011;61938;48.652;9.292;2023-02-15T04:01:51;52.35;;;22.23;;
73642;SDS011;61938;48.652;9.292;2023-02-15T04:04:39;47.83;;;21.45;;
73642;SDS011;61938;48.652;9.292;2023-02-15T04:07:10;56.50;;;22.85;;
73642;SDS011;61938;48.652;9.292;2023-02-15T04:09:36;61.15;;;24.73;;
73642;SDS011;61938;48.652;9.292;2023-02-15T04:12:21;72.82;;;26.95;;
73642;SDS011;61938;48.652;9.292;2023-02-15T04:14:46;90.60;;;28.13;;
73642;SDS011;61938;48.652;9.292;2023-02-15T04:17:31;167.60;;;34.83;;
73642;SDS011;61938;48.652;9.292;2023-02-15T04:19:56;101.45;;;30.33;;
73642;SDS011;61938;48.652;9.292;2023-02-15T04:22:40;122.18;;;33.03;;
73642;SDS011;61938;48.652;9.292;2023-02-15T04:25:25;163.50;;;34.85;;
73642;SDS011;61938;48.652;9.292;2023-02-15T04:27:51;112.63;;;32.45;;
73642;SDS011;61938;48.652;9.292;2023-02-15T04:30:20;90.95;;;31.92;;
73642;SDS011;61938;48.652;9.292;2023-02-15T04:32:47;85.70;;;30.73;;
73642;SDS011;61938;48.652;9.292;2023-02-15T04:35:13;112.75;;;32.30;;
73642;SDS011;61938;48.652;9.292;2023-02-15T04:37:39;81.43;;;29.15;;
73642;SDS011;61938;48.652;9.292;2023-02-15T04:40:06;93.65;;;28.92;;
73642;SDS011;61938;48.652;9.292;2023-02-15T04:42:33;79.25;;;30.65;;
73642;SDS011;61938;48.652;9.292;2023-02-15T04:44:58;93.90;;;29.65;;
73642;SDS011;61938;48.652;9.292;2023-02-15T04:47:24;78.05;;;29.95;;
73642;SDS011;61938;48.652;9.292;2023-02-15T04:49:50;89.18;;;30.00;;
73642;SDS011;61938;48.652;9.292;2023-02-15T04:52:15;80.10;;;30.45;;
73642;SDS011;61938;48.652;9.292;2023-02-15T04:54:42;93.70;;;30.73;;
73642;SDS011;61938;48.652;9.292;2023-02-15T04:57:09;97.38;;;30.75;;
73642;SDS011;61938;48.652;9.292;2023-02-15T04:59:34;101.97;;;34.00;;
73642;SDS011;61938;48.652;9.292;2023-02-15T05:02:00;85.57;;;30.75;;
73642;SDS011;61938;48.652;9.292;2023-02-15T05:04:26;82.65;;;29.80;;
73642;SDS011;61938;48.652;9.292;2023-02-15T05:06:51;83.75;;;29.70;;
73642;SDS011;61938;48.652;9.292;2023-02-15T05:09:17;88.00;;;32.47;;
73642;SDS011;61938;48.652;9.292;2023-02-15T05:11:42;88.20;;;30.60;;
73642;SDS011;61938;48.652;9.292;2023-02-15T05:14:08;94.18;;;31.60;;
73642;SDS011;61938;48.652;9.292;2023-02-15T05:16:34;88.55;;;32.90;;
73642;SDS011;61938;48.652;9.292;2023-02-15T05:18:59;96.30;;;36.08;;
73642;SDS011;61938;48.652;9.292;2023-02-15T05:21:25;88.47;;;34.35;;
73642;SDS011;61938;48.652;9.292;2023-02-15T05:23:50;79.75;;;34.10;;
73642;SDS011;61938;48.652;9.292;2023-02-15T05:26:17;76.75;;;30.98;;
73642;SDS011;61938;48.652;9.292;2023-02-15T05:29:03;96.85;;;31.52;;
73642;SDS011;61938;48.652;9.292;2023-02-15T05:31:30;90.72;;;33.70;;
73642;SDS011;61938;48.652;9.292;2023-02-15T05:33:55;98.10;;;34.15;;
73642;SDS011;61938;48.652;9.292;2023-02-15T05:36:21;85.60;;;34.53;;
73642;SDS011;61938;48.652;9.292;2023-02-15T05:38:46;99.45;;;33.03;;
73642;SDS011;61938;48.652;9.292;2023-02-15T05:41:12;80.03;;;28.98;;
73642;SDS011;61938;48.652;9.292;2023-02-15T05:43:38;97.22;;;29.08;;
73642;SDS011;61938;48.652;9.292;2023-02-15T05:46:04;77.72;;;28.63;;
73642;SDS011;61938;48.652;9.292;2023-02-15T05:48:30;83.20;;;27.27;;
73642;SDS011;61938;48.652;9.292;2023-02-15T05:51:00;76.55;;;29.17;;
73642;SDS011;61938;48.652;9.292;2023-02-15T05:53:27;66.63;;;26.95;;
73642;SDS011;61938;48.652;9.292;2023-02-15T05:55:53;64.10;;;26.45;;
73642;SDS011;61938;48.652;9.292;2023-02-15T05:58:23;71.35;;;26.75;;
73642;SDS011;61938;48.652;9.292;2023-02-15T06:00:50;63.85;;;27.60;;
73642;SDS011;61938;48.652;9.292;2023-02-15T06:03:15;73.80;;;29.63;;
73642;SDS011;61938;48.652;9.292;2023-02-15T06:05:40;82.28;;;30.20;;
73642;SDS011;61938;48.652;9.292;2023-02-15T06:08:06;91.43;;;37.13;;
73642;SDS011;61938;48.652;9.292;2023-02-15T06:10:32;96.18;;;39.88;;
73642;SDS011;61938;48.652;9.292;2023-02-15T06:12:57;93.32;;;39.65;;
73642;SDS011;61938;48.652;9.292;2023-02-15T06:15:23;105.78;;;41.40;;
73642;SDS011;61938;48.652;9.292;2023-02-15T06:17:48;97.38;;;38.97;;
73642;SDS011;61938;48.652;9.292;2023-02-15T06:20:14;101.15;;;39.83;;
73642;SDS011;61938;48.652;9.292;2023-02-15T06:22:39;92.05;;;37.13;;
73642;SDS011;61938;48.652;9.292;2023-02-15T06:25:05;93.03;;;37.58;;
73642;SDS011;61938;48.652;9.292;2023-02-15T06:27:30;96.13;;;37.00;;
73642;SDS011;61938;48.652;9.292;2023-02-15T06:29:56;78.10;;;33.88;;
73642;SDS011;61938;48.652;9.292;2023-02-15T06:32:21;68.00;;;29.25;;
73642;SDS011;61938;48.652;9.292;2023-02-15T06:34:47;59.17;;;24.85;;
73642;SDS011;61938;48.652;9.292;2023-02-15T06:37:12;58.90;;;26.15;;
73642;SDS011;61938;48.652;9.292;2023-02-15T06:39:38;55.78;;;25.05;;
73642;SDS011;61938;48.652;9.292;2023-02-15T06:42:03;57.42;;;23.75;;
73642;SDS011;61938;48.652;9.292;2023-02-15T06:44:29;59.95;;;24.65;;
73642;SDS011;61938;48.652;9.292;2023-02-15T06:46:54;59.63;;;25.02;;
73642;SDS011;61938;48.652;9.292;2023-02-15T06:49:19;53.38;;;24.20;;
73642;SDS011;61938;48.652;9.292;2023-02-15T06:51:45;55.60;;;24.25;;
73642;SDS011;61938;48.652;9.292;2023-02-15T06:54:10;51.50;;;24.50;;
73642;SDS011;61938;48.652;9.292;2023-02-15T06:56:36;51.97;;;21.90;;
73642;SDS011;61938;48.652;9.292;2023-02-15T06:59:01;49.22;;;22.38;;
73642;SDS011;61938;48.652;9.292;2023-02-15T07:01:27;49.30;;;21.77;;
73642;SDS011;61938;48.652;9.292;2023-02-15T07:03:52;59.35;;;24.35;;
73642;SDS011;61938;48.652;9.292;2023-02-15T07:06:18;54.65;;;24.58;;
73642;SDS011;61938;48.652;9.292;2023-02-15T07:08:43;50.58;;;22.60;;
73642;SDS011;61938;48.652;9.292;2023-02-15T07:11:09;54.83;;;24.33;;
73642;SDS011;61938;48.652;9.292;2023-02-15T07:13:53;44.47;;;22.27;;
73642;SDS011;61938;48.652;9.292;2023-02-15T07:16:19;50.50;;;22.48;;
73642;SDS011;61938;48.652;9.292;2023-02-15T07:18:44;52.42;;;21.33;;
73642;SDS011;61938;48.652;9.292;2023-02-15T07:21:10;54.38;;;22.70;;
73642;SDS011;61938;48.652;9.292;2023-02-15T07:23:36;51.70;;;22.48;;
73642;SDS011;61938;48.652;9.292;2023-02-15T07:26:03;62.22;;;21.05;;
73642;SDS011;61938;48.652;9.292;2023-02-15T07:28:29;45.45;;;21.48;;
73642;SDS011;61938;48.652;9.292;2023-02-15T07:30:55;52.00;;;20.98;;
73642;SDS011;61938;48.652;9.292;2023-02-15T07:33:20;48.38;;;20.55;;
73642;SDS011;61938;48.652;9.292;2023-02-15T07:35:49;45.38;;;21.50;;
73642;SDS011;61938;48.652;9.292;2023-02-15T07:38:16;50.33;;;22.50;;
73642;SDS011;61938;48.652;9.292;2023-02-15T07:40:42;48.47;;;21.58;;
73642;SDS011;61938;48.652;9.292;2023-02-15T07:43:08;49.22;;;22.50;;
73642;SDS011;61938;48.652;9.292;2023-02-15T07:45:34;50.75;;;22.35;;
73642;SDS011;61938;48.652;9.292;2023-02-15T07:48:00;46.03;;;21.55;;
73642;SDS011;61938;48.652;9.292;2023-02-15T07:50:26;45.38;;;21.92;;
73642;SDS011;61938;48.652;9.292;2023-02-15T07:52:52;50.30;;;23.60;;
73642;SDS011;61938;48.652;9.292;2023-02-15T07:55:17;43.95;;;20.80;;
73642;SDS011;61938;48.652;9.292;2023-02-15T07:57:47;45.53;;;20.90;;
73642;SDS011;61938;48.652;9.292;2023-02-15T08:00:15;46.83;;;20.90;;
73642;SDS011;61938;48.652;9.292;2023-02-15T08:02:41;45.00;;;20.33;;
73642;SDS011;61938;48.652;9.292;2023-02-15T08:05:12;42.72;;;21.38;;
73642;SDS011;61938;48.652;9.292;2023-02-15T08:07:37;47.70;;;20.77;;
73642;SDS011;61938;48.652;9.292;2023-02-15T08:10:03;48.00;;;21.83;;
73642;SDS011;61938;48.652;9.292;2023-02-15T08:12:28;48.90;;;21.92;;
73642;SDS011;61938;48.652;9.292;2023-02-15T08:14:54;50.30;;;21.75;;
73642;SDS011;61938;48.652;9.292;2023-02-15T08:17:19;44.20;;;21.15;;
73642;SDS011;61938;48.652;9.292;2023-02-15T08:19:45;48.00;;;21.48;;
73642;SDS011;61938;48.652;9.292;2023-02-15T08:22:12;47.05;;;21.63;;
73642;SDS011;61938;48.652;9.292;2023-02-15T08:24:39;42.45;;;20.35;;
73642;SDS011;61938;48.652;9.292;2023-02-15T08:27:05;45.55;;;22.25;;
73642;SDS011;61938;48.652;9.292;2023-02-15T08:29:32;41.78;;;21.27;;
73642;SDS011;61938;48.652;9.292;2023-02-15T08:32:03;47.00;;;22.80;;
73642;SDS011;61938;48.652;9.292;2023-02-15T08:36:57;50.42;;;22.45;;
73642;SDS011;61938;48.652;9.292;2023-02-15T08:39:23;48.47;;;22.50;;
73642;SDS011;61938;48.652;9.292;2023-02-15T08:41:49;41.95;;;22.05;;
73642;SDS011;61938;48.652;9.292;2023-02-15T08:44:15;48.65;;;23.00;;
73642;SDS011;61938;48.652;9.292;2023-02-15T08:46:43;44.28;;;21.88;;
73642;SDS011;61938;48.652;9.292;2023-02-15T08:49:15;46.22;;;22.67;;
73642;SDS011;61938;48.652;9.292;2023-02-15T08:51:42;46.88;;;22.08;;
73642;SDS011;61938;48.652;9.292;2023-02-15T08:54:09;46.38;;;22.98;;
73642;SDS011;61938;48.652;9.292;2023-02-15T08:56:38;48.13;;;21.98;;
73642;SDS011;61938;48.652;9.292;2023-02-15T08:59:04;46.25;;;21.23;;
73642;SDS011;61938;48.652;9.292;2023-02-15T09:01:32;43.20;;;21.38;;
73642;SDS011;61938;48.652;9.292;2023-02-15T09:04:03;48.13;;;22.58;;
73642;SDS011;61938;48.652;9.292;2023-02-15T09:06:30;44.72;;;22.80;;
73642;SDS011;61938;48.652;9.292;2023-02-15T09:08:56;46.42;;;22.27;;
73642;SDS011;61938;48.652;9.292;2023-02-15T09:11:23;44.17;;;22.90;;
73642;SDS011;61938;48.652;9.292;2023-02-15T09:13:57;46.93;;;23.33;;
73642;SDS011;61938;48.652;9.292;2023-02-15T09:16:26;55.88;;;23.88;;
73642;SDS011;61938;48.652;9.292;2023-02-15T09:18:53;43.00;;;21.88;;
73642;SDS011;61938;48.652;9.292;2023-02-15T09:21:20;44.60;;;22.13;;
73642;SDS011;61938;48.652;9.292;2023-02-15T09:23:48;45.17;;;22.83;;
73642;SDS011;61938;48.652;9.292;2023-02-15T09:26:16;48.80;;;22.38;;
73642;SDS011;61938;48.652;9.292;2023-02-15T09:28:43;46.80;;;21.95;;
73642;SDS011;61938;48.652;9.292;2023-02-15T09:31:13;40.25;;;20.70;;
73642;SDS011;61938;48.652;9.292;2023-02-15T09:33:40;41.40;;;20.42;;
73642;SDS011;61938;48.652;9.292;2023-02-15T09:36:15;45.30;;;21.65;;
73642;SDS011;61938;48.652;9.292;2023-02-15T09:38:46;37.25;;;19.25;;
73642;SDS011;61938;48.652;9.292;2023-02-15T09:44:11;41.92;;;20.88;;
73642;SDS011;61938;48.652;9.292;2023-02-15T09:46:49;38.15;;;20.25;;
73642;SDS011;61938;48.652;9.292;2023-02-15T09:55:34;43.88;;;21.33;;
73642;SDS011;61938;48.652;9.292;2023-02-15T09:58:55;41.80;;;21.63;;
73642;SDS011;61938;48.652;9.292;2023-02-15T10:06:20;43.20;;;21.23;;
73642;SDS011;61938;48.652;9.292;2023-02-15T10:12:03;40.90;;;19.42;;
73642;SDS011;61938;48.652;9.292;2023-02-15T10:20:13;39.45;;;19.85;;
73642;SDS011;61938;48.652;9.292;2023-02-15T10:23:13;37.97;;;20.08;;
73642;SDS011;61938;48.652;9.292;2023-02-15T10:26:04;45.63;;;20.73;;
73642;SDS011;61938;48.652;9.292;2023-02-15T10:28:51;39.13;;;19.45;;
73642;SDS011;61938;48.652;9.292;2023-02-15T10:31:22;43.72;;;19.52;;
73642;SDS011;61938;48.652;9.292;2023-02-15T10:33:59;32.95;;;18.25;;
73642;SDS011;61938;48.652;9.292;2023-02-15T10:44:51;43.80;;;19.15;;
73642;SDS011;61938;48.652;9.292;2023-02-15T10:50:46;34.10;;;17.33;;
73642;SDS011;61938;48.652;9.292;2023-02-15T10:56:20;31.17;;;16.73;;
73642;SDS011;61938;48.652;9.292;2023-02-15T11:01:31;32.38;;;16.38;;
73642;SDS011;61938;48.652;9.292;2023-02-15T11:06:53;35.15;;;16.63;;
73642;SDS011;61938;48.652;9.292;2023-02-15T11:09:29;28.08;;;15.18;;
73642;SDS011;61938;48.652;9.292;2023-02-15T11:12:03;28.60;;;15.38;;
73642;SDS011;61938;48.652;9.292;2023-02-15T11:14:45;27.85;;;15.02;;
73642;SDS011;61938;48.652;9.292;2023-02-15T11:17:33;29.92;;;16.25;;
73642;SDS011;61938;48.652;9.292;2023-02-15T11:20:17;31.88;;;15.43;;
73642;SDS011;61938;48.652;9.292;2023-02-15T11:22:48;30.95;;;16.10;;
73642;SDS011;61938;48.652;9.292;2023-02-15T11:25:19;35.80;;;18.63;;
73642;SDS011;61938;48.652;9.292;2023-02-15T11:28:22;34.90;;;16.65;;
73642;SDS011;61938;48.652;9.292;2023-02-15T11:30:55;38.70;;;17.13;;
73642;SDS011;61938;48.652;9.292;2023-02-15T11:33:26;25.40;;;15.05;;
73642;SDS011;61938;48.652;9.292;2023-02-15T11:38:31;36.83;;;16.10;;
73642;SDS011;61938;48.652;9.292;2023-02-15T11:46:10;24.25;;;13.85;;
73642;SDS011;61938;48.652;9.292;2023-02-15T11:48:37;25.55;;;14.55;;
73642;SDS011;61938;48.652;9.292;2023-02-15T11:51:04;24.45;;;14.75;;
73642;SDS011;61938;48.652;9.292;2023-02-15T11:53:32;24.65;;;15.00;;
73642;SDS011;61938;48.652;9.292;2023-02-15T11:56:00;27.73;;;15.13;;
73642;SDS011;61938;48.652;9.292;2023-02-15T12:06:41;28.60;;;13.80;;
73642;SDS011;61938;48.652;9.292;2023-02-15T12:09:16;30.23;;;14.57;;
73642;SDS011;61938;48.652;9.292;2023-02-15T12:11:49;29.42;;;13.82;;
73642;SDS011;61938;48.652;9.292;2023-02-15T12:14:15;28.52;;;13.85;;
73642;SDS011;61938;48.652;9.292;2023-02-15T12:16:47;27.42;;;14.65;;
73642;SDS011;61938;48.652;9.292;2023-02-15T12:19:27;25.08;;;13.95;;
73642;SDS011;61938;48.652;9.292;2023-02-15T12:21:56;20.98;;;13.18;;
73642;SDS011;61938;48.652;9.292;2023-02-15T12:24:25;25.40;;;14.30;;
73642;SDS011;61938;48.652;9.292;2023-02-15T12:26:58;27.50;;;15.30;;
73642;SDS011;61938;48.652;9.292;2023-02-15T12:29:29;26.27;;;15.88;;
73642;SDS011;61938;48.652;9.292;2023-02-15T12:32:00;30.63;;;17.02;;
73642;SDS011;61938;48.652;9.292;2023-02-15T12:36:56;29.13;;;17.00;;
73642;SDS011;61938;48.652;9.292;2023-02-15T12:39:28;31.70;;;17.65;;
73642;SDS011;61938;48.652;9.292;2023-02-15T12:42:41;32.60;;;18.23;;
73642;SDS011;61938;48.652;9.292;2023-02-15T12:44:59;31.30;;;17.65;;
73642;SDS011;61938;48.652;9.292;2023-02-15T12:47:44;31.00;;;17.27;;
73642;SDS011;61938;48.652;9.292;2023-02-15T12:50:28;30.02;;;17.98;;
73642;SDS011;61938;48.652;9.292;2023-02-15T12:53:05;30.77;;;16.98;;
73642;SDS011;61938;48.652;9.292;2023-02-15T12:58:51;35.70;;;17.70;;
73642;SDS011;61938;48.652;9.292;2023-02-15T13:01:31;30.83;;;18.13;;
73642;SDS011;61938;48.652;9.292;2023-02-15T13:03:58;30.55;;;17.33;;
73642;SDS011;61938;48.652;9.292;2023-02-15T13:06:27;34.80;;;17.38;;
73642;SDS011;61938;48.652;9.292;2023-02-15T13:08:56;32.92;;;17.92;;
73642;SDS011;61938;48.652;9.292;2023-02-15T13:11:30;36.35;;;18.50;;
73642;SDS011;61938;48.652;9.292;2023-02-15T13:14:00;32.88;;;16.75;;
73642;SDS011;61938;48.652;9.292;2023-02-15T13:16:35;26.48;;;15.25;;
73642;SDS011;61938;48.652;9.292;2023-02-15T13:19:04;28.15;;;15.13;;
73642;SDS011;61938;48.652;9.292;2023-02-15T13:21:37;30.77;;;16.90;;
73642;SDS011;61938;48.652;9.292;2023-02-15T13:24:06;29.55;;;15.07;;
73642;SDS011;61938;48.652;9.292;2023-02-15T13:26:41;25.00;;;14.00;;
73642;SDS011;61938;48.652;9.292;2023-02-15T13:29:23;32.78;;;15.38;;
73642;SDS011;61938;48.652;9.292;2023-02-15T13:31:51;28.50;;;15.10;;
73642;SDS011;61938;48.652;9.292;2023-02-15T13:34:34;26.60;;;13.98;;
73642;SDS011;61938;48.652;9.292;2023-02-15T13:39:34;27.13;;;13.00;;
73642;SDS011;61938;48.652;9.292;2023-02-15T13:42:27;23.98;;;13.45;;
73642;SDS011;61938;48.652;9.292;2023-02-15T13:56:40;25.88;;;11.65;;
73642;SDS011;61938;48.652;9.292;2023-02-15T14:01:58;24.23;;;11.25;;
73642;SDS011;61938;48.652;9.292;2023-02-15T14:07:26;21.70;;;11.77;;
73642;SDS011;61938;48.652;9.292;2023-02-15T14:16:03;24.02;;;12.48;;
73642;SDS011;61938;48.652;9.292;2023-02-15T14:18:44;26.02;;;11.60;;
73642;SDS011;61938;48.652;9.292;2023-02-15T14:21:49;27.23;;;13.07;;
73642;SDS011;61938;48.652;9.292;2023-02-15T14:25:06;23.25;;;12.65;;
73642;SDS011;61938;48.652;9.292;2023-02-15T14:30:37;25.15;;;14.18;;
73642;SDS011;61938;48.652;9.292;2023-02-15T14:33:05;24.13;;;12.02;;
73642;SDS011;61938;48.652;9.292;2023-02-15T14:35:32;26.38;;;12.68;;
73642;SDS011;61938;48.652;9.292;2023-02-15T14:38:21;25.52;;;12.18;;
73642;SDS011;61938;48.652;9.292;2023-02-15T14:40:59;25.92;;;13.07;;
73642;SDS011;61938;48.652;9.292;2023-02-15T14:49:12;25.90;;;14.07;;
73642;SDS011;61938;48.652;9.292;2023-02-15T14:59:46;30.90;;;15.07;;
73642;SDS011;61938;48.652;9.292;2023-02-15T15:02:21;29.63;;;14.93;;
73642;SDS011;61938;48.652;9.292;2023-02-15T15:07:50;23.40;;;12.55;;
73642;SDS011;61938;48.652;9.292;2023-02-15T15:13:00;20.80;;;11.50;;
73642;SDS011;61938;48.652;9.292;2023-02-15T15:19:12;19.83;;;11.07;;
73642;SDS011;61938;48.652;9.292;2023-02-15T15:22:22;27.60;;;12.48;;
73642;SDS011;61938;48.652;9.292;2023-02-15T15:24:56;21.98;;;10.70;;
73642;SDS011;61938;48.652;9.292;2023-02-15T15:32:40;21.90;;;12.55;;
73642;SDS011;61938;48.652;9.292;2023-02-15T15:35:15;25.65;;;13.25;;
73642;SDS011;61938;48.652;9.292;2023-02-15T15:43:47;37.60;;;13.95;;
73642;SDS011;61938;48.652;9.292;2023-02-15T15:49:20;22.45;;;10.77;;
73642;SDS011;61938;48.652;9.292;2023-02-15T15:51:48;29.90;;;12.07;;
73642;SDS011;61938;48.652;9.292;2023-02-15T15:54:15;21.17;;;12.38;;
73642;SDS011;61938;48.652;9.292;2023-02-15T15:56:42;24.55;;;11.88;;
73642;SDS011;61938;48.652;9.292;2023-02-15T15:59:13;30.58;;;11.40;;
73642;SDS011;61938;48.652;9.292;2023-02-15T16:01:46;31.95;;;16.80;;
73642;SDS011;61938;48.652;9.292;2023-02-15T16:04:13;38.92;;;16.48;;
73642;SDS011;61938;48.652;9.292;2023-02-15T16:06:47;44.88;;;20.17;;
73642;SDS011;61938;48.652;9.292;2023-02-15T16:11:44;47.78;;;21.85;;
73642;SDS011;61938;48.652;9.292;2023-02-15T16:14:17;48.60;;;22.75;;
73642;SDS011;61938;48.652;9.292;2023-02-15T16:16:49;58.10;;;25.27;;
73642;SDS011;61938;48.652;9.292;2023-02-15T16:19:18;46.70;;;23.95;;
73642;SDS011;61938;48.652;9.292;2023-02-15T16:21:46;54.22;;;23.25;;
73642;SDS011;61938;48.652;9.292;2023-02-15T16:24:16;47.67;;;24.00;;
73642;SDS011;61938;48.652;9.292;2023-02-15T16:29:31;56.05;;;24.20;;
73642;SDS011;61938;48.652;9.292;2023-02-15T16:32:01;53.28;;;24.42;;
73642;SDS011;61938;48.652;9.292;2023-02-15T16:34:28;51.55;;;25.25;;
73642;SDS011;61938;48.652;9.292;2023-02-15T16:37:13;52.85;;;23.70;;
73642;SDS011;61938;48.652;9.292;2023-02-15T16:39:43;48.67;;;23.00;;
73642;SDS011;61938;48.652;9.292;2023-02-15T16:42:10;52.50;;;22.85;;
73642;SDS011;61938;48.652;9.292;2023-02-15T16:44:38;49.90;;;23.10;;
73642;SDS011;61938;48.652;9.292;2023-02-15T16:47:05;51.08;;;22.27;;
73642;SDS011;61938;48.652;9.292;2023-02-15T16:49:39;41.92;;;21.25;;
73642;SDS011;61938;48.652;9.292;2023-02-15T16:52:11;45.55;;;21.45;;
73642;SDS011;61938;48.652;9.292;2023-02-15T16:54:43;59.60;;;29.00;;
73642;SDS011;61938;48.652;9.292;2023-02-15T16:57:16;57.47;;;29.73;;
73642;SDS011;61938;48.652;9.292;2023-02-15T16:59:45;47.58;;;23.00;;
73642;SDS011;61938;48.652;9.292;2023-02-15T17:02:17;42.75;;;21.58;;
73642;SDS011;61938;48.652;9.292;2023-02-15T17:04:44;44.33;;;20.80;;
73642;SDS011;61938;48.652;9.292;2023-02-15T17:07:17;48.90;;;20.45;;
73642;SDS011;61938;48.652;9.292;2023-02-15T17:09:48;44.42;;;19.92;;
73642;SDS011;61938;48.652;9.292;2023-02-15T17:17:55;46.13;;;20.52;;
73642;SDS011;61938;48.652;9.292;2023-02-15T17:20:26;48.53;;;20.77;;
73642;SDS011;61938;48.652;9.292;2023-02-15T17:22:52;52.22;;;22.35;;
73642;SDS011;61938;48.652;9.292;2023-02-15T17:25:20;46.40;;;21.15;;